Terminal Aerodrome Forecast
Issued by NWS

Current Version | Previous Version | Text Only | Print | Product List | Glossary On
Versions: 1 2 3 4 5 6 7 8 9 10 11 12 13 14 15 16 17
000
FTUS43 KILX 251700
TAFDEC
TAF
KDEC 251728Z 2518/2618 06010KT P6SM -SHRA BKN025 OVC035
     FM252100 03021G28KT 2SM -RASN BR OVC008
     FM260000 01020G26KT P6SM OVC015
     FM260700 35011KT P6SM BKN015
     FM261300 30006KT P6SM SCT050 BKN100=

USA.gov is the U.S. government's official web portal to all federal, state and local government web resources and services.